createdAt,value
2023-05-14T00:01:08.207Z,4.93
2023-05-14T00:04:10.552Z,5.75
2023-05-14T00:07:12.938Z,5.22
2023-05-14T00:10:15.245Z,5.75
2023-05-14T00:13:17.514Z,5.30
2023-05-14T00:16:20.099Z,4.50
2023-05-14T00:19:22.516Z,5.25
2023-05-14T00:22:24.973Z,4.22
2023-05-14T00:25:27.655Z,5.80
2023-05-14T00:28:29.919Z,5.88
2023-05-14T00:31:32.343Z,5.18
2023-05-14T00:34:35.144Z,5.15
2023-05-14T00:37:37.548Z,5.13
2023-05-14T00:40:41.561Z,4.93
2023-05-14T00:43:44.075Z,5.70
2023-05-14T00:46:46.411Z,5.18
2023-05-14T00:49:48.803Z,5.57
2023-05-14T00:52:51.085Z,5.32
2023-05-14T00:55:53.667Z,4.93
2023-05-14T00:58:56.058Z,5.50
2023-05-14T01:01:58.642Z,5.80
2023-05-14T01:05:01.540Z,5.13
2023-05-14T01:08:33.688Z,5.05
2023-05-14T01:11:48.732Z,5.35
2023-05-14T01:14:56.942Z,6.43
2023-05-14T01:18:03.403Z,5.07
2023-05-14T01:21:06.368Z,5.13
2023-05-14T01:24:09.413Z,5.32
2023-05-14T01:27:39.497Z,5.55
2023-05-14T01:31:01.620Z,6.18
2023-05-14T01:34:05.775Z,5.93
2023-05-14T01:37:09.840Z,5.72
2023-05-14T01:40:12.907Z,5.72
2023-05-14T01:43:16.102Z,5.43
2023-05-14T01:46:24.168Z,5.72
2023-05-14T01:49:26.548Z,5.50
2023-05-14T01:52:28.819Z,5.55
2023-05-14T01:55:31.192Z,5.30
2023-05-14T01:58:33.455Z,5.30
2023-05-14T02:01:36.077Z,5.32
2023-05-14T02:04:38.753Z,5.32
2023-05-14T02:07:41.045Z,4.90
2023-05-14T02:10:44.388Z,5.15
2023-05-14T02:13:46.795Z,5.38
2023-05-14T02:16:51.043Z,5.15
2023-05-14T02:19:53.448Z,5.15
2023-05-14T02:22:55.802Z,5.82
2023-05-14T02:25:58.052Z,6.15
2023-05-14T02:29:00.318Z,5.10
2023-05-14T02:32:02.553Z,5.90
2023-05-14T02:35:05.352Z,5.15
2023-05-14T02:38:08.073Z,6.05
2023-05-14T02:41:10.531Z,4.75
2023-05-14T02:44:13.468Z,5.25
2023-05-14T02:47:15.782Z,5.20
2023-05-14T02:50:18.120Z,5.47
2023-05-14T02:53:20.393Z,4.70
2023-05-14T02:56:22.663Z,4.88
2023-05-14T02:59:25.213Z,5.10
2023-05-14T03:02:28.428Z,5.43
2023-05-14T03:05:31.206Z,5.75
2023-05-14T03:08:33.553Z,6.32
2023-05-14T03:11:35.994Z,5.68
2023-05-14T03:14:38.249Z,5.15
2023-05-14T03:17:40.731Z,5.55
2023-05-14T03:20:43.163Z,5.40
2023-05-14T03:23:45.499Z,5.18
2023-05-14T03:26:47.823Z,4.68
2023-05-14T03:29:50.073Z,5.43
2023-05-14T03:32:52.508Z,5.18
2023-05-14T03:35:54.837Z,4.57
2023-05-14T03:38:57.095Z,4.95
2023-05-14T03:41:59.501Z,5.22
2023-05-14T03:45:02.096Z,4.93
2023-05-14T03:48:04.904Z,4.78
2023-05-14T03:51:08.080Z,5.22
2023-05-14T03:54:11.648Z,4.65
2023-05-14T03:57:14.167Z,5.00
2023-05-14T04:00:16.710Z,4.68
2023-05-14T04:03:19.415Z,5.00
2023-05-14T04:06:22.376Z,4.85
2023-05-14T04:09:24.820Z,4.25
2023-05-14T04:12:27.208Z,4.45
2023-05-14T04:15:30.049Z,4.45
2023-05-14T04:18:35.354Z,4.38
2023-05-14T04:21:37.687Z,4.45
2023-05-14T04:24:40.208Z,4.60
2023-05-14T04:27:42.515Z,4.85
2023-05-14T04:30:45.745Z,4.28
2023-05-14T04:33:48.397Z,4.78
2023-05-14T04:36:51.442Z,3.65
2023-05-14T04:39:53.791Z,4.53
2023-05-14T04:42:56.054Z,4.82
2023-05-14T04:45:58.392Z,4.63
2023-05-14T04:49:00.693Z,4.53
2023-05-14T04:52:02.957Z,4.50
2023-05-14T04:55:06.039Z,4.20
2023-05-14T04:58:08.404Z,4.88
2023-05-14T05:01:10.771Z,4.47
2023-05-14T05:04:13.526Z,4.15
2023-05-14T05:07:16.113Z,3.90
2023-05-14T05:10:18.417Z,4.45
2023-05-14T05:13:20.829Z,4.18
2023-05-14T05:16:23.276Z,3.90
2023-05-14T05:19:35.606Z,4.13
2023-05-14T05:22:42.282Z,5.10
2023-05-14T05:25:44.610Z,4.15
2023-05-14T05:28:46.892Z,3.78
2023-05-14T05:31:49.843Z,4.28
2023-05-14T05:34:52.166Z,4.28
2023-05-14T05:37:54.432Z,4.28
2023-05-14T05:40:56.823Z,4.05
2023-05-14T05:43:59.148Z,4.57
2023-05-14T05:47:01.707Z,5.05
2023-05-14T05:50:04.617Z,4.63
2023-05-14T05:53:06.895Z,4.10
2023-05-14T05:56:09.197Z,4.45
2023-05-14T05:59:11.531Z,4.70
2023-05-14T06:02:13.918Z,4.68
2023-05-14T06:05:16.471Z,4.55
2023-05-14T06:08:19.103Z,4.97
2023-05-14T06:11:21.862Z,4.28
2023-05-14T06:14:24.132Z,5.13
2023-05-14T06:17:26.909Z,4.43
2023-05-14T06:20:29.285Z,4.60
2023-05-14T06:23:31.568Z,4.82
2023-05-14T06:26:33.838Z,5.03
2023-05-14T06:29:36.484Z,4.13
2023-05-14T06:32:39.008Z,4.15
2023-05-14T06:35:41.550Z,4.05
2023-05-14T06:38:43.814Z,4.30
2023-05-14T06:41:46.106Z,4.30
2023-05-14T06:44:50.623Z,5.18
2023-05-14T06:47:53.008Z,4.95
2023-05-14T06:50:55.722Z,4.57
2023-05-14T06:53:58.248Z,4.70
2023-05-14T06:57:00.599Z,4.38
2023-05-14T07:00:03.779Z,4.55
2023-05-14T07:03:06.471Z,4.18
2023-05-14T07:06:09.291Z,4.03
2023-05-14T07:09:12.273Z,4.05
2023-05-14T07:12:14.584Z,4.22
2023-05-14T07:15:16.992Z,3.70
2023-05-14T07:18:19.425Z,4.55
2023-05-14T07:21:21.826Z,4.45
2023-05-14T07:24:24.298Z,4.85
2023-05-14T07:27:26.725Z,4.10
2023-05-14T07:30:29.040Z,4.40
2023-05-14T07:33:31.585Z,4.88
2023-05-14T07:36:34.069Z,4.45
2023-05-14T07:39:36.394Z,3.40
2023-05-14T07:42:38.814Z,3.70
2023-05-14T07:45:41.260Z,3.95
2023-05-14T07:48:43.689Z,4.30
2023-05-14T07:51:46.296Z,3.92
2023-05-14T07:54:50.614Z,4.15
2023-05-14T07:57:53.145Z,3.90
2023-05-14T08:00:56.616Z,4.13
2023-05-14T08:03:59.274Z,4.03
2023-05-14T08:07:01.868Z,5.10
2023-05-14T08:10:04.400Z,4.20
2023-05-14T08:13:06.796Z,4.43
2023-05-14T08:16:09.335Z,4.22
2023-05-14T08:19:12.925Z,3.75
2023-05-14T08:22:15.469Z,4.00
2023-05-14T08:25:17.753Z,4.07
2023-05-14T08:28:20.062Z,4.40
2023-05-14T08:31:22.470Z,4.57
2023-05-14T08:34:24.938Z,4.45
2023-05-14T08:37:27.346Z,3.72
2023-05-14T08:40:29.641Z,4.60
2023-05-14T08:43:55.128Z,3.88
2023-05-14T08:46:57.902Z,3.92
2023-05-14T08:50:05.486Z,4.35
2023-05-14T08:53:07.937Z,4.07
2023-05-14T08:56:10.494Z,4.50
2023-05-14T08:59:13.418Z,3.72
2023-05-14T09:02:17.423Z,4.00
2023-05-14T09:05:20.427Z,3.85
2023-05-14T09:08:23.181Z,4.18
2023-05-14T09:11:25.572Z,3.95
2023-05-14T09:14:28.016Z,3.85
2023-05-14T09:17:31.809Z,4.00
2023-05-14T09:20:34.709Z,4.20
2023-05-14T09:23:42.496Z,4.15
2023-05-14T09:26:44.806Z,3.92
2023-05-14T09:29:48.098Z,3.90
2023-05-14T09:32:54.135Z,3.80
2023-05-14T09:36:02.840Z,4.07
2023-05-14T09:39:05.382Z,4.22
2023-05-14T09:42:07.945Z,4.32
2023-05-14T09:45:10.877Z,3.60
2023-05-14T09:48:13.408Z,4.80
2023-05-14T09:51:21.340Z,4.32
2023-05-14T09:54:26.164Z,4.20
2023-05-14T09:57:29.114Z,5.03
2023-05-14T10:00:35.736Z,4.93
2023-05-14T10:03:38.310Z,4.50
2023-05-14T10:06:42.979Z,4.28
2023-05-14T10:09:46.424Z,4.00
2023-05-14T10:12:52.945Z,4.75
2023-05-14T10:16:08.282Z,4.85
2023-05-14T10:19:12.347Z,4.57
2023-05-14T10:22:17.753Z,4.88
2023-05-14T10:25:20.208Z,5.53
2023-05-14T10:28:22.702Z,5.15
2023-05-14T10:31:51.370Z,5.07
2023-05-14T10:34:54.034Z,5.25
2023-05-14T10:37:56.949Z,5.55
2023-05-14T10:41:21.664Z,5.80
2023-05-14T10:44:24.194Z,5.18
2023-05-14T10:47:27.049Z,4.82
2023-05-14T10:50:29.769Z,4.65
2023-05-14T10:53:43.135Z,4.65
2023-05-14T10:56:49.875Z,4.63
2023-05-14T10:59:55.189Z,5.28
2023-05-14T11:02:57.870Z,6.00
2023-05-14T11:06:03.974Z,5.25
2023-05-14T11:09:06.819Z,6.00
2023-05-14T11:12:09.417Z,4.95
2023-05-14T11:15:14.161Z,5.45
2023-05-14T11:18:29.351Z,5.63
2023-05-14T11:21:32.933Z,4.80
2023-05-14T11:24:35.462Z,4.85
2023-05-14T11:27:39.230Z,4.80
2023-05-14T11:30:41.758Z,4.95
2023-05-14T11:33:44.587Z,5.18
2023-05-14T11:36:46.884Z,5.00
2023-05-14T11:39:51.200Z,5.82
2023-05-14T11:42:53.791Z,5.63
2023-05-14T11:45:56.827Z,6.57
2023-05-14T11:48:59.182Z,6.70
2023-05-14T11:52:03.042Z,6.85
2023-05-14T11:55:06.374Z,5.25
2023-05-14T11:58:08.810Z,5.53
2023-05-14T12:01:13.654Z,5.47
2023-05-14T12:04:19.024Z,5.10
2023-05-14T12:07:21.420Z,5.97
2023-05-14T12:10:24.193Z,5.88
2023-05-14T12:13:28.314Z,5.53
2023-05-14T12:16:35.549Z,5.13
2023-05-14T12:19:42.011Z,5.90
2023-05-14T12:22:44.413Z,6.13
2023-05-14T12:25:51.430Z,6.07
2023-05-14T12:29:00.005Z,6.00
2023-05-14T12:32:04.671Z,5.65
2023-05-14T12:35:07.257Z,7.05
2023-05-14T12:38:09.845Z,6.30
2023-05-14T12:41:12.106Z,6.38
2023-05-14T12:44:14.378Z,7.28
2023-05-14T12:47:17.323Z,6.75
2023-05-14T12:50:19.786Z,6.80
2023-05-14T12:53:22.057Z,8.40
2023-05-14T12:56:28.256Z,8.05
2023-05-14T12:59:30.575Z,7.10
2023-05-14T13:02:32.890Z,8.43
2023-05-14T13:05:35.221Z,7.88
2023-05-14T13:08:37.555Z,9.32
2023-05-14T13:11:39.929Z,8.77
2023-05-14T13:14:42.208Z,8.10
2023-05-14T13:17:44.596Z,7.57
2023-05-14T13:20:50.113Z,8.52
2023-05-14T13:23:52.407Z,8.95
2023-05-14T13:26:54.784Z,9.05
2023-05-14T13:29:57.119Z,8.90
2023-05-14T13:33:00.097Z,10.35
2023-05-14T13:36:02.864Z,9.20
2023-05-14T13:39:06.856Z,9.73
2023-05-14T13:42:09.411Z,10.55
2023-05-14T13:45:13.112Z,11.20
2023-05-14T13:48:15.502Z,11.13
2023-05-14T13:51:17.931Z,10.55
2023-05-14T13:54:20.355Z,11.52
2023-05-14T13:57:23.148Z,9.25
2023-05-14T14:00:27.172Z,8.82
2023-05-14T14:03:29.453Z,8.77
2023-05-14T14:06:34.635Z,8.88
2023-05-14T14:09:36.973Z,8.32
2023-05-14T14:12:39.349Z,9.40
2023-05-14T14:15:41.732Z,9.68
2023-05-14T14:18:45.126Z,8.18
2023-05-14T14:21:47.842Z,10.07
2023-05-14T14:24:50.136Z,5.72
2023-05-14T14:27:52.532Z,7.18
2023-05-14T14:30:54.834Z,6.72
2023-05-14T14:33:57.188Z,7.30
2023-05-14T14:36:59.486Z,7.60
2023-05-14T14:40:01.743Z,7.82
2023-05-14T14:43:04.075Z,7.50
2023-05-14T14:46:06.717Z,7.25
2023-05-14T14:49:09.165Z,5.78
2023-05-14T14:52:11.491Z,6.28
2023-05-14T14:55:13.777Z,5.03
2023-05-14T14:58:16.085Z,7.13
2023-05-14T15:01:18.584Z,4.93
2023-05-14T15:04:20.886Z,6.05
2023-05-14T15:07:23.169Z,5.35
2023-05-14T15:10:28.645Z,6.20
2023-05-14T15:13:31.228Z,5.00
2023-05-14T15:16:33.619Z,7.97
2023-05-14T15:19:36.232Z,6.50
2023-05-14T15:22:38.645Z,6.05
2023-05-14T15:25:41.052Z,7.25
2023-05-14T15:28:43.637Z,8.57
2023-05-14T15:31:46.231Z,6.20
2023-05-14T15:34:48.501Z,5.95
2023-05-14T15:37:50.904Z,6.57
2023-05-14T15:40:53.304Z,4.63
2023-05-14T15:43:56.231Z,6.10
2023-05-14T15:46:58.546Z,6.07
2023-05-14T15:50:01.216Z,6.10
2023-05-14T15:53:03.626Z,7.90
2023-05-14T15:56:06.303Z,6.50
2023-05-14T15:59:08.664Z,6.65
2023-05-14T16:02:11.396Z,5.15
2023-05-14T16:05:15.178Z,4.07
2023-05-14T16:08:17.477Z,5.82
2023-05-14T16:11:19.757Z,6.72
2023-05-14T16:14:22.898Z,6.95
2023-05-14T16:17:26.811Z,4.50
2023-05-14T16:20:29.195Z,4.38
2023-05-14T16:23:31.449Z,4.40
2023-05-14T16:26:33.838Z,4.63
2023-05-14T16:29:36.298Z,5.70
2023-05-14T16:32:38.703Z,6.53
2023-05-14T16:35:41.100Z,6.57
2023-05-14T16:38:57.170Z,5.95
2023-05-14T16:42:06.193Z,6.07
2023-05-14T16:45:09.119Z,6.18
2023-05-14T16:48:11.656Z,6.07
2023-05-14T16:51:14.115Z,5.90
2023-05-14T16:54:16.681Z,5.97
2023-05-14T16:57:19.127Z,6.75
2023-05-14T17:00:21.561Z,6.82
2023-05-14T17:03:23.954Z,6.15
2023-05-14T17:06:26.283Z,5.13
2023-05-14T17:09:28.645Z,5.28
2023-05-14T17:12:30.946Z,5.65
2023-05-14T17:15:33.636Z,3.90
2023-05-14T17:18:36.061Z,5.78
2023-05-14T17:21:38.393Z,6.00
2023-05-14T17:24:40.786Z,5.10
2023-05-14T17:27:43.076Z,5.93
2023-05-14T17:30:45.641Z,6.45
2023-05-14T17:33:47.921Z,4.57
2023-05-14T17:36:50.495Z,5.72
2023-05-14T17:39:53.175Z,5.50
2023-05-14T17:42:55.443Z,5.32
2023-05-14T17:45:57.952Z,5.00
2023-05-14T17:49:00.216Z,5.05
2023-05-14T17:52:02.826Z,5.32
2023-05-14T17:55:05.592Z,5.32
2023-05-14T17:58:07.918Z,5.65
2023-05-14T18:01:10.318Z,5.43
2023-05-14T18:04:12.827Z,4.57
2023-05-14T18:07:15.193Z,5.45
2023-05-14T18:10:17.783Z,6.03
2023-05-14T18:13:20.176Z,6.57
2023-05-14T18:16:26.916Z,5.22
2023-05-14T18:19:29.241Z,6.28
2023-05-14T18:22:32.154Z,7.22
2023-05-14T18:25:34.435Z,7.43
2023-05-14T18:28:37.289Z,6.28
2023-05-14T18:31:39.573Z,6.65
2023-05-14T18:34:41.860Z,5.90
2023-05-14T18:37:44.122Z,5.97
2023-05-14T18:40:46.665Z,6.75
2023-05-14T18:43:48.910Z,6.28
2023-05-14T18:46:51.289Z,6.30
2023-05-14T18:49:55.790Z,5.65
2023-05-14T18:53:02.948Z,5.72
2023-05-14T18:56:15.365Z,6.25
2023-05-14T18:59:18.944Z,6.85
2023-05-14T19:02:22.150Z,4.90
2023-05-14T19:05:24.646Z,7.32
2023-05-14T19:08:33.541Z,5.70
2023-05-14T19:11:40.002Z,6.32
2023-05-14T19:14:54.646Z,4.10
2023-05-14T19:17:57.719Z,5.47
2023-05-14T19:21:00.052Z,6.28
2023-05-14T19:24:02.918Z,6.03
2023-05-14T19:27:05.936Z,4.85
2023-05-14T19:30:33.956Z,5.72
2023-05-14T19:33:39.219Z,5.05
2023-05-14T19:36:42.080Z,6.05
2023-05-14T19:39:44.640Z,5.60
2023-05-14T19:42:51.788Z,4.55
2023-05-14T19:45:54.727Z,6.57
2023-05-14T19:48:57.845Z,6.10
2023-05-14T19:52:00.458Z,5.50
2023-05-14T19:55:02.813Z,5.07
2023-05-14T19:58:05.088Z,4.35
2023-05-14T20:01:07.979Z,5.65
2023-05-14T20:04:12.072Z,5.25
2023-05-14T20:07:30.225Z,5.13
2023-05-14T20:10:32.452Z,4.43
2023-05-14T20:13:38.743Z,4.68
2023-05-14T20:16:41.709Z,5.40
2023-05-14T20:19:50.173Z,4.05
2023-05-14T20:23:21.682Z,5.85
2023-05-14T20:26:24.025Z,6.03
2023-05-14T20:29:26.328Z,6.35
2023-05-14T20:32:28.727Z,5.40
2023-05-14T20:35:31.272Z,3.72
2023-05-14T20:38:35.016Z,4.85
2023-05-14T20:41:37.949Z,5.28
2023-05-14T20:44:40.318Z,6.28
2023-05-14T20:47:42.722Z,5.70
2023-05-14T20:50:44.954Z,6.93
2023-05-14T20:53:47.509Z,5.70
2023-05-14T20:56:49.818Z,7.07
2023-05-14T20:59:52.106Z,7.13
2023-05-14T21:02:54.628Z,6.75
2023-05-14T21:05:57.081Z,6.93
2023-05-14T21:08:59.507Z,6.95
2023-05-14T21:12:01.789Z,6.88
2023-05-14T21:15:04.553Z,6.38
2023-05-14T21:18:06.853Z,5.32
2023-05-14T21:21:09.174Z,6.97
2023-05-14T21:24:11.489Z,7.28
2023-05-14T21:27:13.807Z,6.68
2023-05-14T21:30:16.085Z,5.93
2023-05-14T21:33:18.964Z,7.20
2023-05-14T21:36:21.396Z,5.88
2023-05-14T21:39:23.646Z,4.90
2023-05-14T21:42:26.004Z,6.35
2023-05-14T21:45:28.689Z,6.68
2023-05-14T21:48:31.175Z,6.88
2023-05-14T21:51:34.077Z,6.15
2023-05-14T21:54:36.392Z,7.43
2023-05-14T21:57:38.633Z,6.95
2023-05-14T22:00:41.204Z,7.72
2023-05-14T22:03:43.501Z,7.97
2023-05-14T22:06:46.000Z,8.35
2023-05-14T22:09:49.333Z,9.10
2023-05-14T22:12:52.363Z,8.48
2023-05-14T22:16:01.350Z,8.20
2023-05-14T22:19:16.455Z,8.65
2023-05-14T22:22:19.059Z,9.88
2023-05-14T22:25:21.327Z,9.77
2023-05-14T22:28:23.788Z,11.18
2023-05-14T22:31:26.081Z,10.30
2023-05-14T22:34:28.394Z,9.68
2023-05-14T22:37:30.801Z,8.73
2023-05-14T22:40:33.129Z,10.68
2023-05-14T22:43:35.410Z,8.80
2023-05-14T22:46:37.894Z,10.20
2023-05-14T22:49:40.717Z,9.43
2023-05-14T22:52:42.994Z,8.50
2023-05-14T22:55:45.581Z,9.88
2023-05-14T22:58:48.061Z,7.97
2023-05-14T23:01:50.462Z,8.80
2023-05-14T23:04:52.933Z,10.68
2023-05-14T23:07:55.500Z,9.57
2023-05-14T23:10:57.738Z,9.00
2023-05-14T23:14:00.010Z,9.77
2023-05-14T23:17:02.237Z,10.00
2023-05-14T23:20:06.054Z,8.68
2023-05-14T23:23:08.493Z,8.57
2023-05-14T23:26:11.008Z,9.05
2023-05-14T23:29:13.288Z,7.85
2023-05-14T23:32:15.636Z,8.20
2023-05-14T23:35:17.936Z,8.40
2023-05-14T23:38:21.012Z,9.85
2023-05-14T23:41:23.372Z,9.48
2023-05-14T23:44:26.930Z,9.00
2023-05-14T23:47:29.301Z,7.47
2023-05-14T23:50:31.928Z,7.57
2023-05-14T23:53:34.616Z,7.30
2023-05-14T23:56:37.307Z,8.70
2023-05-14T23:59:40.535Z,8.20
